sensor_id;sensor_type;location;lat;lon;timestamp;P1;durP1;ratioP1;P2;durP2;ratioP2
4957;SDS011;2494;51.872;9.688;2023-02-11T00:00:31;50.33;;;29.07;;
4957;SDS011;2494;51.872;9.688;2023-02-11T00:03:18;53.77;;;29.87;;
4957;SDS011;2494;51.872;9.688;2023-02-11T00:06:04;55.10;;;29.60;;
4957;SDS011;2494;51.872;9.688;2023-02-11T00:08:51;48.53;;;28.30;;
4957;SDS011;2494;51.872;9.688;2023-02-11T00:11:36;47.00;;;28.93;;
4957;SDS011;2494;51.872;9.688;2023-02-11T00:14:22;49.40;;;31.47;;
4957;SDS011;2494;51.872;9.688;2023-02-11T00:17:08;49.77;;;29.20;;
4957;SDS011;2494;51.872;9.688;2023-02-11T00:19:54;46.73;;;28.87;;
4957;SDS011;2494;51.872;9.688;2023-02-11T00:22:39;48.67;;;28.87;;
4957;SDS011;2494;51.872;9.688;2023-02-11T00:25:24;47.63;;;30.80;;
4957;SDS011;2494;51.872;9.688;2023-02-11T00:28:10;46.73;;;29.70;;
4957;SDS011;2494;51.872;9.688;2023-02-11T00:30:55;48.63;;;28.43;;
4957;SDS011;2494;51.872;9.688;2023-02-11T00:33:41;53.00;;;31.37;;
4957;SDS011;2494;51.872;9.688;2023-02-11T00:36:28;51.20;;;30.27;;
4957;SDS011;2494;51.872;9.688;2023-02-11T00:39:14;51.70;;;31.40;;
4957;SDS011;2494;51.872;9.688;2023-02-11T00:41:58;52.20;;;31.87;;
4957;SDS011;2494;51.872;9.688;2023-02-11T00:44:43;52.10;;;31.57;;
4957;SDS011;2494;51.872;9.688;2023-02-11T00:47:28;53.87;;;30.97;;
4957;SDS011;2494;51.872;9.688;2023-02-11T00:50:13;54.03;;;31.33;;
4957;SDS011;2494;51.872;9.688;2023-02-11T00:52:59;53.00;;;32.10;;
4957;SDS011;2494;51.872;9.688;2023-02-11T00:55:44;52.90;;;30.10;;
4957;SDS011;2494;51.872;9.688;2023-02-11T00:58:29;48.13;;;30.30;;
4957;SDS011;2494;51.872;9.688;2023-02-11T01:01:15;49.73;;;29.00;;
4957;SDS011;2494;51.872;9.688;2023-02-11T01:04:00;49.13;;;29.23;;
4957;SDS011;2494;51.872;9.688;2023-02-11T01:06:45;53.43;;;30.77;;
4957;SDS011;2494;51.872;9.688;2023-02-11T01:09:32;48.80;;;29.50;;
4957;SDS011;2494;51.872;9.688;2023-02-11T01:12:17;53.50;;;30.87;;
4957;SDS011;2494;51.872;9.688;2023-02-11T01:15:03;52.67;;;30.60;;
4957;SDS011;2494;51.872;9.688;2023-02-11T01:17:48;57.00;;;32.87;;
4957;SDS011;2494;51.872;9.688;2023-02-11T01:20:34;58.57;;;34.43;;
4957;SDS011;2494;51.872;9.688;2023-02-11T01:23:19;51.20;;;31.97;;
4957;SDS011;2494;51.872;9.688;2023-02-11T01:26:06;55.40;;;31.43;;
4957;SDS011;2494;51.872;9.688;2023-02-11T01:28:51;55.43;;;32.23;;
4957;SDS011;2494;51.872;9.688;2023-02-11T01:31:36;57.83;;;31.77;;
4957;SDS011;2494;51.872;9.688;2023-02-11T01:34:21;50.00;;;32.57;;
4957;SDS011;2494;51.872;9.688;2023-02-11T01:37:07;57.03;;;34.47;;
4957;SDS011;2494;51.872;9.688;2023-02-11T01:39:52;50.00;;;32.67;;
4957;SDS011;2494;51.872;9.688;2023-02-11T01:42:38;55.63;;;32.43;;
4957;SDS011;2494;51.872;9.688;2023-02-11T01:48:28;54.37;;;32.53;;
4957;SDS011;2494;51.872;9.688;2023-02-11T01:51:15;65.50;;;33.80;;
4957;SDS011;2494;51.872;9.688;2023-02-11T01:54:02;52.13;;;32.73;;
4957;SDS011;2494;51.872;9.688;2023-02-11T01:57:17;60.53;;;31.90;;
4957;SDS011;2494;51.872;9.688;2023-02-11T02:00:10;52.57;;;33.57;;
4957;SDS011;2494;51.872;9.688;2023-02-11T02:02:57;53.07;;;34.47;;
4957;SDS011;2494;51.872;9.688;2023-02-11T02:05:45;53.60;;;34.27;;
4957;SDS011;2494;51.872;9.688;2023-02-11T02:08:33;53.53;;;32.20;;
4957;SDS011;2494;51.872;9.688;2023-02-11T02:11:20;54.37;;;32.77;;
4957;SDS011;2494;51.872;9.688;2023-02-11T02:14:05;57.27;;;34.33;;
4957;SDS011;2494;51.872;9.688;2023-02-11T02:16:52;61.20;;;34.93;;
4957;SDS011;2494;51.872;9.688;2023-02-11T02:19:47;58.20;;;33.80;;
4957;SDS011;2494;51.872;9.688;2023-02-11T02:22:52;60.60;;;34.93;;
4957;SDS011;2494;51.872;9.688;2023-02-11T02:28:49;60.33;;;34.80;;
4957;SDS011;2494;51.872;9.688;2023-02-11T02:31:45;63.83;;;35.50;;
4957;SDS011;2494;51.872;9.688;2023-02-11T02:34:39;56.90;;;34.80;;
4957;SDS011;2494;51.872;9.688;2023-02-11T02:37:27;58.30;;;33.50;;
4957;SDS011;2494;51.872;9.688;2023-02-11T02:40:16;59.83;;;34.90;;
4957;SDS011;2494;51.872;9.688;2023-02-11T02:43:02;60.63;;;33.97;;
4957;SDS011;2494;51.872;9.688;2023-02-11T02:45:48;58.50;;;34.23;;
4957;SDS011;2494;51.872;9.688;2023-02-11T02:48:33;57.60;;;36.13;;
4957;SDS011;2494;51.872;9.688;2023-02-11T02:51:24;68.50;;;37.97;;
4957;SDS011;2494;51.872;9.688;2023-02-11T02:54:21;58.30;;;32.77;;
4957;SDS011;2494;51.872;9.688;2023-02-11T02:57:11;54.37;;;32.77;;
4957;SDS011;2494;51.872;9.688;2023-02-11T03:00:05;49.67;;;31.70;;
4957;SDS011;2494;51.872;9.688;2023-02-11T03:02:53;56.50;;;32.90;;
4957;SDS011;2494;51.872;9.688;2023-02-11T03:05:43;59.97;;;33.20;;
4957;SDS011;2494;51.872;9.688;2023-02-11T03:08:33;54.63;;;33.47;;
4957;SDS011;2494;51.872;9.688;2023-02-11T03:11:20;55.83;;;32.27;;
4957;SDS011;2494;51.872;9.688;2023-02-11T03:14:07;52.60;;;33.63;;
4957;SDS011;2494;51.872;9.688;2023-02-11T03:16:53;50.93;;;32.87;;
4957;SDS011;2494;51.872;9.688;2023-02-11T03:19:39;58.77;;;33.27;;
4957;SDS011;2494;51.872;9.688;2023-02-11T03:22:26;51.67;;;31.20;;
4957;SDS011;2494;51.872;9.688;2023-02-11T03:25:13;56.10;;;33.30;;
4957;SDS011;2494;51.872;9.688;2023-02-11T03:27:59;51.90;;;32.03;;
4957;SDS011;2494;51.872;9.688;2023-02-11T03:30:48;56.50;;;32.23;;
4957;SDS011;2494;51.872;9.688;2023-02-11T03:33:34;53.87;;;34.10;;
4957;SDS011;2494;51.872;9.688;2023-02-11T03:36:23;59.37;;;33.00;;
4957;SDS011;2494;51.872;9.688;2023-02-11T03:39:10;51.87;;;32.47;;
4957;SDS011;2494;51.872;9.688;2023-02-11T03:41:57;57.13;;;32.40;;
4957;SDS011;2494;51.872;9.688;2023-02-11T03:44:45;48.63;;;31.00;;
4957;SDS011;2494;51.872;9.688;2023-02-11T03:47:32;53.70;;;32.70;;
4957;SDS011;2494;51.872;9.688;2023-02-11T03:50:19;51.67;;;32.90;;
4957;SDS011;2494;51.872;9.688;2023-02-11T03:53:05;55.30;;;32.50;;
4957;SDS011;2494;51.872;9.688;2023-02-11T03:55:51;52.47;;;32.60;;
4957;SDS011;2494;51.872;9.688;2023-02-11T03:58:40;47.40;;;28.40;;
4957;SDS011;2494;51.872;9.688;2023-02-11T04:01:30;59.10;;;32.90;;
4957;SDS011;2494;51.872;9.688;2023-02-11T04:04:15;58.50;;;34.33;;
4957;SDS011;2494;51.872;9.688;2023-02-11T04:07:00;53.43;;;31.33;;
4957;SDS011;2494;51.872;9.688;2023-02-11T04:09:46;46.07;;;29.57;;
4957;SDS011;2494;51.872;9.688;2023-02-11T04:12:31;55.97;;;31.47;;
4957;SDS011;2494;51.872;9.688;2023-02-11T04:15:17;49.00;;;32.93;;
4957;SDS011;2494;51.872;9.688;2023-02-11T04:18:03;50.97;;;31.10;;
4957;SDS011;2494;51.872;9.688;2023-02-11T04:20:49;58.23;;;34.30;;
4957;SDS011;2494;51.872;9.688;2023-02-11T04:23:34;52.43;;;32.77;;
4957;SDS011;2494;51.872;9.688;2023-02-11T04:26:19;57.30;;;33.00;;
4957;SDS011;2494;51.872;9.688;2023-02-11T04:29:04;52.20;;;32.23;;
4957;SDS011;2494;51.872;9.688;2023-02-11T04:31:51;59.07;;;34.40;;
4957;SDS011;2494;51.872;9.688;2023-02-11T04:34:38;56.90;;;33.20;;
4957;SDS011;2494;51.872;9.688;2023-02-11T04:37:24;55.50;;;33.27;;
4957;SDS011;2494;51.872;9.688;2023-02-11T04:40:09;64.10;;;33.20;;
4957;SDS011;2494;51.872;9.688;2023-02-11T04:42:54;54.93;;;32.90;;
4957;SDS011;2494;51.872;9.688;2023-02-11T04:45:40;51.63;;;32.50;;
4957;SDS011;2494;51.872;9.688;2023-02-11T04:48:27;54.63;;;33.53;;
4957;SDS011;2494;51.872;9.688;2023-02-11T04:51:12;52.07;;;34.40;;
4957;SDS011;2494;51.872;9.688;2023-02-11T04:53:57;52.03;;;32.87;;
4957;SDS011;2494;51.872;9.688;2023-02-11T04:56:42;58.90;;;33.57;;
4957;SDS011;2494;51.872;9.688;2023-02-11T04:59:28;50.70;;;32.30;;
4957;SDS011;2494;51.872;9.688;2023-02-11T05:02:13;52.47;;;31.97;;
4957;SDS011;2494;51.872;9.688;2023-02-11T05:05:01;58.03;;;34.00;;
4957;SDS011;2494;51.872;9.688;2023-02-11T05:07:46;50.50;;;31.70;;
4957;SDS011;2494;51.872;9.688;2023-02-11T05:10:31;57.70;;;35.77;;
4957;SDS011;2494;51.872;9.688;2023-02-11T05:13:16;55.67;;;35.57;;
4957;SDS011;2494;51.872;9.688;2023-02-11T05:16:02;55.70;;;33.60;;
4957;SDS011;2494;51.872;9.688;2023-02-11T05:18:49;62.97;;;36.93;;
4957;SDS011;2494;51.872;9.688;2023-02-11T05:21:48;61.00;;;34.33;;
4957;SDS011;2494;51.872;9.688;2023-02-11T05:24:33;62.73;;;33.33;;
4957;SDS011;2494;51.872;9.688;2023-02-11T05:27:19;60.03;;;34.93;;
4957;SDS011;2494;51.872;9.688;2023-02-11T05:30:05;63.63;;;37.40;;
4957;SDS011;2494;51.872;9.688;2023-02-11T05:32:50;69.87;;;36.47;;
4957;SDS011;2494;51.872;9.688;2023-02-11T05:35:36;65.10;;;37.40;;
4957;SDS011;2494;51.872;9.688;2023-02-11T05:38:23;68.17;;;35.13;;
4957;SDS011;2494;51.872;9.688;2023-02-11T05:41:09;57.57;;;34.03;;
4957;SDS011;2494;51.872;9.688;2023-02-11T05:43:54;63.47;;;36.03;;
4957;SDS011;2494;51.872;9.688;2023-02-11T05:46:40;74.83;;;39.40;;
4957;SDS011;2494;51.872;9.688;2023-02-11T05:49:25;72.13;;;37.37;;
4957;SDS011;2494;51.872;9.688;2023-02-11T05:52:11;77.73;;;40.27;;
4957;SDS011;2494;51.872;9.688;2023-02-11T05:54:58;74.90;;;39.10;;
4957;SDS011;2494;51.872;9.688;2023-02-11T05:57:43;81.90;;;40.90;;
4957;SDS011;2494;51.872;9.688;2023-02-11T06:00:29;84.80;;;43.17;;
4957;SDS011;2494;51.872;9.688;2023-02-11T06:03:14;78.50;;;41.20;;
4957;SDS011;2494;51.872;9.688;2023-02-11T06:05:59;75.30;;;43.33;;
4957;SDS011;2494;51.872;9.688;2023-02-11T06:08:44;84.03;;;45.27;;
4957;SDS011;2494;51.872;9.688;2023-02-11T06:11:30;86.50;;;45.00;;
4957;SDS011;2494;51.872;9.688;2023-02-11T06:14:15;91.07;;;44.27;;
4957;SDS011;2494;51.872;9.688;2023-02-11T06:17:00;89.00;;;44.70;;
4957;SDS011;2494;51.872;9.688;2023-02-11T06:19:45;95.00;;;44.67;;
4957;SDS011;2494;51.872;9.688;2023-02-11T06:22:30;104.30;;;47.20;;
4957;SDS011;2494;51.872;9.688;2023-02-11T06:25:15;96.53;;;46.40;;
4957;SDS011;2494;51.872;9.688;2023-02-11T06:28:02;92.60;;;47.47;;
4957;SDS011;2494;51.872;9.688;2023-02-11T06:30:47;107.53;;;48.37;;
4957;SDS011;2494;51.872;9.688;2023-02-11T06:33:32;91.33;;;44.53;;
4957;SDS011;2494;51.872;9.688;2023-02-11T06:36:18;97.80;;;43.00;;
4957;SDS011;2494;51.872;9.688;2023-02-11T06:39:03;101.27;;;48.87;;
4957;SDS011;2494;51.872;9.688;2023-02-11T06:41:49;95.57;;;47.63;;
4957;SDS011;2494;51.872;9.688;2023-02-11T06:44:35;107.67;;;49.60;;
4957;SDS011;2494;51.872;9.688;2023-02-11T06:47:21;99.80;;;47.93;;
4957;SDS011;2494;51.872;9.688;2023-02-11T06:50:07;104.77;;;49.57;;
4957;SDS011;2494;51.872;9.688;2023-02-11T06:52:52;114.63;;;49.07;;
4957;SDS011;2494;51.872;9.688;2023-02-11T06:55:37;95.93;;;46.30;;
4957;SDS011;2494;51.872;9.688;2023-02-11T06:58:22;119.40;;;51.03;;
4957;SDS011;2494;51.872;9.688;2023-02-11T07:01:09;114.30;;;51.13;;
4957;SDS011;2494;51.872;9.688;2023-02-11T07:03:55;105.50;;;52.47;;
4957;SDS011;2494;51.872;9.688;2023-02-11T07:06:40;108.83;;;49.07;;
4957;SDS011;2494;51.872;9.688;2023-02-11T07:09:25;104.13;;;48.47;;
4957;SDS011;2494;51.872;9.688;2023-02-11T07:12:10;82.37;;;45.67;;
4957;SDS011;2494;51.872;9.688;2023-02-11T07:14:56;117.70;;;48.90;;
4957;SDS011;2494;51.872;9.688;2023-02-11T07:17:42;104.50;;;49.43;;
4957;SDS011;2494;51.872;9.688;2023-02-11T07:20:27;119.67;;;48.50;;
4957;SDS011;2494;51.872;9.688;2023-02-11T07:23:13;110.73;;;49.53;;
4957;SDS011;2494;51.872;9.688;2023-02-11T07:26:00;100.63;;;46.40;;
4957;SDS011;2494;51.872;9.688;2023-02-11T07:28:46;110.40;;;48.63;;
4957;SDS011;2494;51.872;9.688;2023-02-11T07:31:31;97.73;;;47.10;;
4957;SDS011;2494;51.872;9.688;2023-02-11T07:34:18;103.43;;;47.70;;
4957;SDS011;2494;51.872;9.688;2023-02-11T07:37:03;109.50;;;46.70;;
4957;SDS011;2494;51.872;9.688;2023-02-11T07:39:49;88.30;;;47.53;;
4957;SDS011;2494;51.872;9.688;2023-02-11T07:42:36;90.43;;;42.60;;
4957;SDS011;2494;51.872;9.688;2023-02-11T07:45:22;91.80;;;47.37;;
4957;SDS011;2494;51.872;9.688;2023-02-11T07:48:08;92.30;;;45.73;;
4957;SDS011;2494;51.872;9.688;2023-02-11T07:50:56;89.13;;;44.47;;
4957;SDS011;2494;51.872;9.688;2023-02-11T07:53:48;96.23;;;44.77;;
4957;SDS011;2494;51.872;9.688;2023-02-11T07:56:34;88.23;;;44.50;;
4957;SDS011;2494;51.872;9.688;2023-02-11T07:59:20;94.60;;;43.60;;
4957;SDS011;2494;51.872;9.688;2023-02-11T08:02:07;94.87;;;43.67;;
4957;SDS011;2494;51.872;9.688;2023-02-11T08:04:53;94.60;;;44.93;;
4957;SDS011;2494;51.872;9.688;2023-02-11T08:07:40;87.23;;;44.10;;
4957;SDS011;2494;51.872;9.688;2023-02-11T08:10:25;97.83;;;43.17;;
4957;SDS011;2494;51.872;9.688;2023-02-11T08:13:10;90.87;;;43.90;;
4957;SDS011;2494;51.872;9.688;2023-02-11T08:15:56;96.00;;;42.37;;
4957;SDS011;2494;51.872;9.688;2023-02-11T08:18:41;80.33;;;43.37;;
4957;SDS011;2494;51.872;9.688;2023-02-11T08:21:27;94.50;;;44.97;;
4957;SDS011;2494;51.872;9.688;2023-02-11T08:24:15;87.90;;;43.10;;
4957;SDS011;2494;51.872;9.688;2023-02-11T08:27:01;83.30;;;42.47;;
4957;SDS011;2494;51.872;9.688;2023-02-11T08:29:46;80.20;;;40.10;;
4957;SDS011;2494;51.872;9.688;2023-02-11T08:32:32;87.70;;;44.83;;
4957;SDS011;2494;51.872;9.688;2023-02-11T08:35:20;86.73;;;43.13;;
4957;SDS011;2494;51.872;9.688;2023-02-11T08:38:05;88.30;;;41.80;;
4957;SDS011;2494;51.872;9.688;2023-02-11T08:40:53;93.40;;;43.70;;
4957;SDS011;2494;51.872;9.688;2023-02-11T08:43:38;86.57;;;43.83;;
4957;SDS011;2494;51.872;9.688;2023-02-11T08:46:24;90.60;;;43.67;;
4957;SDS011;2494;51.872;9.688;2023-02-11T08:49:10;85.57;;;41.73;;
4957;SDS011;2494;51.872;9.688;2023-02-11T08:51:55;89.57;;;43.63;;
4957;SDS011;2494;51.872;9.688;2023-02-11T08:54:45;92.97;;;42.23;;
4957;SDS011;2494;51.872;9.688;2023-02-11T08:57:33;81.97;;;41.63;;
4957;SDS011;2494;51.872;9.688;2023-02-11T09:00:20;86.67;;;42.03;;
4957;SDS011;2494;51.872;9.688;2023-02-11T09:03:06;92.13;;;43.23;;
4957;SDS011;2494;51.872;9.688;2023-02-11T09:05:51;86.13;;;43.13;;
4957;SDS011;2494;51.872;9.688;2023-02-11T09:08:39;89.20;;;43.67;;
4957;SDS011;2494;51.872;9.688;2023-02-11T09:11:29;84.97;;;39.73;;
4957;SDS011;2494;51.872;9.688;2023-02-11T09:14:17;89.87;;;42.23;;
4957;SDS011;2494;51.872;9.688;2023-02-11T09:17:03;84.17;;;41.97;;
4957;SDS011;2494;51.872;9.688;2023-02-11T09:19:47;75.97;;;40.10;;
4957;SDS011;2494;51.872;9.688;2023-02-11T09:22:32;86.10;;;41.60;;
4957;SDS011;2494;51.872;9.688;2023-02-11T09:25:19;84.93;;;41.07;;
4957;SDS011;2494;51.872;9.688;2023-02-11T09:28:04;81.93;;;42.00;;
4957;SDS011;2494;51.872;9.688;2023-02-11T09:30:52;76.43;;;41.37;;
4957;SDS011;2494;51.872;9.688;2023-02-11T09:33:38;84.83;;;40.13;;
4957;SDS011;2494;51.872;9.688;2023-02-11T09:36:25;88.53;;;40.97;;
4957;SDS011;2494;51.872;9.688;2023-02-11T09:39:11;86.00;;;40.47;;
4957;SDS011;2494;51.872;9.688;2023-02-11T09:42:06;80.27;;;37.70;;
4957;SDS011;2494;51.872;9.688;2023-02-11T09:44:53;75.57;;;40.63;;
4957;SDS011;2494;51.872;9.688;2023-02-11T09:47:42;80.27;;;38.90;;
4957;SDS011;2494;51.872;9.688;2023-02-11T09:50:31;82.87;;;39.80;;
4957;SDS011;2494;51.872;9.688;2023-02-11T09:53:19;83.03;;;39.37;;
4957;SDS011;2494;51.872;9.688;2023-02-11T09:56:08;81.53;;;40.10;;
4957;SDS011;2494;51.872;9.688;2023-02-11T09:58:54;83.47;;;41.10;;
4957;SDS011;2494;51.872;9.688;2023-02-11T10:01:41;80.30;;;41.90;;
4957;SDS011;2494;51.872;9.688;2023-02-11T10:04:35;90.80;;;40.70;;
4957;SDS011;2494;51.872;9.688;2023-02-11T10:07:26;79.03;;;38.77;;
4957;SDS011;2494;51.872;9.688;2023-02-11T10:10:16;85.03;;;38.27;;
4957;SDS011;2494;51.872;9.688;2023-02-11T10:13:14;76.00;;;39.37;;
4957;SDS011;2494;51.872;9.688;2023-02-11T10:16:03;93.43;;;38.40;;
4957;SDS011;2494;51.872;9.688;2023-02-11T10:18:53;89.67;;;40.87;;
4957;SDS011;2494;51.872;9.688;2023-02-11T10:21:46;78.13;;;41.00;;
4957;SDS011;2494;51.872;9.688;2023-02-11T10:24:34;75.70;;;37.13;;
4957;SDS011;2494;51.872;9.688;2023-02-11T10:27:20;82.57;;;39.33;;
4957;SDS011;2494;51.872;9.688;2023-02-11T10:30:05;82.43;;;38.67;;
4957;SDS011;2494;51.872;9.688;2023-02-11T10:32:55;81.00;;;38.10;;
4957;SDS011;2494;51.872;9.688;2023-02-11T10:35:41;77.27;;;37.73;;
4957;SDS011;2494;51.872;9.688;2023-02-11T10:38:29;82.37;;;38.47;;
4957;SDS011;2494;51.872;9.688;2023-02-11T10:41:16;80.63;;;39.80;;
4957;SDS011;2494;51.872;9.688;2023-02-11T10:44:05;83.20;;;38.47;;
4957;SDS011;2494;51.872;9.688;2023-02-11T10:46:50;81.33;;;37.87;;
4957;SDS011;2494;51.872;9.688;2023-02-11T10:49:38;77.27;;;37.87;;
4957;SDS011;2494;51.872;9.688;2023-02-11T10:52:24;77.97;;;39.03;;
4957;SDS011;2494;51.872;9.688;2023-02-11T10:55:27;83.50;;;36.77;;
4957;SDS011;2494;51.872;9.688;2023-02-11T10:58:17;75.60;;;35.60;;
4957;SDS011;2494;51.872;9.688;2023-02-11T11:01:06;79.60;;;38.03;;
4957;SDS011;2494;51.872;9.688;2023-02-11T11:03:51;71.00;;;35.50;;
4957;SDS011;2494;51.872;9.688;2023-02-11T11:06:39;78.30;;;35.93;;
4957;SDS011;2494;51.872;9.688;2023-02-11T11:09:27;76.87;;;38.93;;
4957;SDS011;2494;51.872;9.688;2023-02-11T11:12:29;79.73;;;38.23;;
4957;SDS011;2494;51.872;9.688;2023-02-11T11:15:16;91.17;;;40.83;;
4957;SDS011;2494;51.872;9.688;2023-02-11T11:18:09;89.70;;;37.97;;
4957;SDS011;2494;51.872;9.688;2023-02-11T11:20:57;78.40;;;37.50;;
4957;SDS011;2494;51.872;9.688;2023-02-11T11:23:47;73.97;;;37.73;;
4957;SDS011;2494;51.872;9.688;2023-02-11T11:26:38;82.97;;;37.53;;
4957;SDS011;2494;51.872;9.688;2023-02-11T11:29:25;76.40;;;37.63;;
4957;SDS011;2494;51.872;9.688;2023-02-11T11:32:15;71.23;;;37.60;;
4957;SDS011;2494;51.872;9.688;2023-02-11T11:35:03;65.50;;;35.30;;
4957;SDS011;2494;51.872;9.688;2023-02-11T11:37:53;68.53;;;33.63;;
4957;SDS011;2494;51.872;9.688;2023-02-11T11:40:39;79.37;;;36.50;;
4957;SDS011;2494;51.872;9.688;2023-02-11T11:43:25;70.63;;;33.17;;
4957;SDS011;2494;51.872;9.688;2023-02-11T11:46:12;60.17;;;32.33;;
4957;SDS011;2494;51.872;9.688;2023-02-11T11:49:11;61.07;;;32.43;;
4957;SDS011;2494;51.872;9.688;2023-02-11T11:52:00;68.33;;;33.60;;
4957;SDS011;2494;51.872;9.688;2023-02-11T11:54:49;65.53;;;33.27;;
4957;SDS011;2494;51.872;9.688;2023-02-11T11:57:37;62.33;;;30.77;;
4957;SDS011;2494;51.872;9.688;2023-02-11T12:00:25;68.53;;;33.47;;
4957;SDS011;2494;51.872;9.688;2023-02-11T12:06:23;62.27;;;31.73;;
4957;SDS011;2494;51.872;9.688;2023-02-11T12:09:14;63.50;;;32.10;;
4957;SDS011;2494;51.872;9.688;2023-02-11T12:12:05;75.10;;;35.97;;
4957;SDS011;2494;51.872;9.688;2023-02-11T12:14:57;67.17;;;35.90;;
4957;SDS011;2494;51.872;9.688;2023-02-11T12:17:49;70.40;;;33.83;;
4957;SDS011;2494;51.872;9.688;2023-02-11T12:20:37;68.90;;;33.90;;
4957;SDS011;2494;51.872;9.688;2023-02-11T12:23:32;66.23;;;33.80;;
4957;SDS011;2494;51.872;9.688;2023-02-11T12:26:21;72.30;;;36.53;;
4957;SDS011;2494;51.872;9.688;2023-02-11T12:29:08;73.00;;;34.00;;
4957;SDS011;2494;51.872;9.688;2023-02-11T12:32:08;68.60;;;35.13;;
4957;SDS011;2494;51.872;9.688;2023-02-11T12:38:05;62.33;;;31.30;;
4957;SDS011;2494;51.872;9.688;2023-02-11T12:40:59;62.60;;;35.33;;
4957;SDS011;2494;51.872;9.688;2023-02-11T12:43:50;60.27;;;32.03;;
4957;SDS011;2494;51.872;9.688;2023-02-11T12:46:36;63.70;;;32.47;;
4957;SDS011;2494;51.872;9.688;2023-02-11T12:49:33;62.90;;;32.00;;
4957;SDS011;2494;51.872;9.688;2023-02-11T12:52:24;56.50;;;29.60;;
4957;SDS011;2494;51.872;9.688;2023-02-11T12:55:18;50.93;;;29.73;;
4957;SDS011;2494;51.872;9.688;2023-02-11T12:58:06;61.80;;;30.87;;
4957;SDS011;2494;51.872;9.688;2023-02-11T13:00:57;50.80;;;27.97;;
4957;SDS011;2494;51.872;9.688;2023-02-11T13:03:47;57.30;;;31.37;;
4957;SDS011;2494;51.872;9.688;2023-02-11T13:06:34;55.33;;;28.40;;
4957;SDS011;2494;51.872;9.688;2023-02-11T13:09:21;52.33;;;29.07;;
4957;SDS011;2494;51.872;9.688;2023-02-11T13:12:08;60.00;;;30.03;;
4957;SDS011;2494;51.872;9.688;2023-02-11T13:15:12;53.37;;;28.50;;
4957;SDS011;2494;51.872;9.688;2023-02-11T13:17:59;56.00;;;29.93;;
4957;SDS011;2494;51.872;9.688;2023-02-11T13:20:46;59.00;;;31.43;;
4957;SDS011;2494;51.872;9.688;2023-02-11T13:23:36;55.03;;;30.60;;
4957;SDS011;2494;51.872;9.688;2023-02-11T13:26:24;53.80;;;30.40;;
4957;SDS011;2494;51.872;9.688;2023-02-11T13:29:17;49.63;;;31.10;;
4957;SDS011;2494;51.872;9.688;2023-02-11T13:32:07;53.90;;;29.53;;
4957;SDS011;2494;51.872;9.688;2023-02-11T13:34:53;53.10;;;28.50;;
4957;SDS011;2494;51.872;9.688;2023-02-11T13:37:39;53.97;;;29.63;;
4957;SDS011;2494;51.872;9.688;2023-02-11T13:40:25;60.10;;;30.73;;
4957;SDS011;2494;51.872;9.688;2023-02-11T13:43:18;57.43;;;33.07;;
4957;SDS011;2494;51.872;9.688;2023-02-11T13:46:04;64.60;;;32.20;;
4957;SDS011;2494;51.872;9.688;2023-02-11T13:48:51;58.43;;;30.53;;
4957;SDS011;2494;51.872;9.688;2023-02-11T13:51:37;57.63;;;28.73;;
4957;SDS011;2494;51.872;9.688;2023-02-11T13:54:30;60.37;;;31.30;;
4957;SDS011;2494;51.872;9.688;2023-02-11T13:57:29;59.97;;;32.40;;
4957;SDS011;2494;51.872;9.688;2023-02-11T14:03:34;81.67;;;37.27;;
4957;SDS011;2494;51.872;9.688;2023-02-11T14:06:39;62.57;;;33.50;;
4957;SDS011;2494;51.872;9.688;2023-02-11T14:13:22;62.53;;;32.57;;
4957;SDS011;2494;51.872;9.688;2023-02-11T14:16:08;65.90;;;35.30;;
4957;SDS011;2494;51.872;9.688;2023-02-11T14:18:57;67.03;;;33.27;;
4957;SDS011;2494;51.872;9.688;2023-02-11T14:21:44;69.10;;;35.67;;
4957;SDS011;2494;51.872;9.688;2023-02-11T14:24:44;65.30;;;33.50;;
4957;SDS011;2494;51.872;9.688;2023-02-11T14:27:33;69.23;;;34.30;;
4957;SDS011;2494;51.872;9.688;2023-02-11T14:30:25;74.90;;;36.73;;
4957;SDS011;2494;51.872;9.688;2023-02-11T14:33:31;69.43;;;35.20;;
4957;SDS011;2494;51.872;9.688;2023-02-11T14:36:28;69.37;;;32.87;;
4957;SDS011;2494;51.872;9.688;2023-02-11T14:39:24;75.57;;;35.20;;
4957;SDS011;2494;51.872;9.688;2023-02-11T14:42:14;69.37;;;35.07;;
4957;SDS011;2494;51.872;9.688;2023-02-11T14:45:02;66.57;;;36.90;;
4957;SDS011;2494;51.872;9.688;2023-02-11T14:47:50;62.53;;;34.23;;
4957;SDS011;2494;51.872;9.688;2023-02-11T14:50:37;63.30;;;34.63;;
4957;SDS011;2494;51.872;9.688;2023-02-11T14:53:24;63.07;;;33.47;;
4957;SDS011;2494;51.872;9.688;2023-02-11T14:56:17;62.17;;;32.50;;
4957;SDS011;2494;51.872;9.688;2023-02-11T14:59:02;61.87;;;32.40;;
4957;SDS011;2494;51.872;9.688;2023-02-11T15:01:48;64.03;;;33.70;;
4957;SDS011;2494;51.872;9.688;2023-02-11T15:04:34;67.13;;;34.60;;
4957;SDS011;2494;51.872;9.688;2023-02-11T15:07:20;78.53;;;39.50;;
4957;SDS011;2494;51.872;9.688;2023-02-11T15:10:14;73.70;;;33.37;;
4957;SDS011;2494;51.872;9.688;2023-02-11T15:13:01;63.10;;;33.83;;
4957;SDS011;2494;51.872;9.688;2023-02-11T15:15:47;75.13;;;36.47;;
4957;SDS011;2494;51.872;9.688;2023-02-11T15:18:34;69.70;;;32.83;;
4957;SDS011;2494;51.872;9.688;2023-02-11T15:21:21;66.60;;;36.67;;
4957;SDS011;2494;51.872;9.688;2023-02-11T15:24:19;65.63;;;35.97;;
4957;SDS011;2494;51.872;9.688;2023-02-11T15:27:09;73.53;;;34.87;;
4957;SDS011;2494;51.872;9.688;2023-02-11T15:30:00;74.40;;;35.10;;
4957;SDS011;2494;51.872;9.688;2023-02-11T15:32:45;61.10;;;32.50;;
4957;SDS011;2494;51.872;9.688;2023-02-11T15:35:31;72.87;;;34.30;;
4957;SDS011;2494;51.872;9.688;2023-02-11T15:38:17;64.03;;;34.20;;
4957;SDS011;2494;51.872;9.688;2023-02-11T15:41:03;68.77;;;33.50;;
4957;SDS011;2494;51.872;9.688;2023-02-11T15:43:49;62.30;;;33.10;;
4957;SDS011;2494;51.872;9.688;2023-02-11T15:46:37;65.20;;;33.07;;
4957;SDS011;2494;51.872;9.688;2023-02-11T15:49:23;70.70;;;33.23;;
4957;SDS011;2494;51.872;9.688;2023-02-11T15:52:08;72.00;;;33.70;;
4957;SDS011;2494;51.872;9.688;2023-02-11T15:54:53;68.70;;;34.03;;
4957;SDS011;2494;51.872;9.688;2023-02-11T15:57:40;69.13;;;34.50;;
4957;SDS011;2494;51.872;9.688;2023-02-11T16:00:27;70.77;;;34.50;;
4957;SDS011;2494;51.872;9.688;2023-02-11T16:03:22;73.33;;;35.90;;
4957;SDS011;2494;51.872;9.688;2023-02-11T16:06:14;67.60;;;36.00;;
4957;SDS011;2494;51.872;9.688;2023-02-11T16:09:00;78.77;;;37.23;;
4957;SDS011;2494;51.872;9.688;2023-02-11T16:11:52;68.40;;;35.30;;
4957;SDS011;2494;51.872;9.688;2023-02-11T16:14:38;69.53;;;33.30;;
4957;SDS011;2494;51.872;9.688;2023-02-11T16:17:23;76.03;;;33.70;;
4957;SDS011;2494;51.872;9.688;2023-02-11T16:23:03;83.97;;;35.37;;
4957;SDS011;2494;51.872;9.688;2023-02-11T16:25:50;73.03;;;37.00;;
4957;SDS011;2494;51.872;9.688;2023-02-11T16:28:39;81.20;;;38.37;;
4957;SDS011;2494;51.872;9.688;2023-02-11T16:31:30;64.80;;;33.23;;
4957;SDS011;2494;51.872;9.688;2023-02-11T16:34:17;75.53;;;36.07;;
4957;SDS011;2494;51.872;9.688;2023-02-11T16:37:02;75.83;;;35.90;;
4957;SDS011;2494;51.872;9.688;2023-02-11T16:39:49;66.10;;;34.80;;
4957;SDS011;2494;51.872;9.688;2023-02-11T16:42:37;78.80;;;38.90;;
4957;SDS011;2494;51.872;9.688;2023-02-11T16:45:22;94.00;;;41.00;;
4957;SDS011;2494;51.872;9.688;2023-02-11T16:48:07;86.50;;;39.80;;
4957;SDS011;2494;51.872;9.688;2023-02-11T16:50:53;75.67;;;36.67;;
4957;SDS011;2494;51.872;9.688;2023-02-11T16:53:37;76.63;;;39.37;;
4957;SDS011;2494;51.872;9.688;2023-02-11T16:56:24;74.90;;;36.17;;
4957;SDS011;2494;51.872;9.688;2023-02-11T16:59:09;80.43;;;36.67;;
4957;SDS011;2494;51.872;9.688;2023-02-11T17:01:54;75.83;;;36.87;;
4957;SDS011;2494;51.872;9.688;2023-02-11T17:04:41;70.17;;;37.00;;
4957;SDS011;2494;51.872;9.688;2023-02-11T17:07:26;69.13;;;36.43;;
4957;SDS011;2494;51.872;9.688;2023-02-11T17:10:12;74.93;;;35.97;;
4957;SDS011;2494;51.872;9.688;2023-02-11T17:12:59;69.87;;;38.37;;